Time;durP1;ratioP1;P1;durP2;ratioP2;P2;SDS_P1;SDS_P2;PMS_P1;PMS_P2;Temp;Humidity;BMP_temperature;BMP_pressure;BME280_temperature;BME280_humidity;BME280_pressure;Samples;Min_cycle;Max_cycle;Signal;HPM_P1;HPM_P2
2020/12/04 00:00:54;;;;;;;21.33;10.02;;;-0.90;99.90;;;;;;4955878;28;20626;-46
2020/12/04 00:03:22;;;;;;;13.65;9.15;;;-0.90;99.90;;;;;;4956039;28;20195;-50
2020/12/04 00:05:49;;;;;;;15.98;9.88;;;-0.90;99.90;;;;;;4955647;28;20212;-48
2020/12/04 00:08:16;;;;;;;12.82;5.55;;;-1.00;99.90;;;;;;4955625;28;20184;-51
2020/12/04 00:10:43;;;;;;;15.25;7.10;;;-0.90;99.90;;;;;;4955467;29;20179;-48
2020/12/04 00:13:10;;;;;;;16.45;7.78;;;-1.00;99.90;;;;;;4955632;28;20192;-46
2020/12/04 00:15:37;;;;;;;15.70;6.38;;;-1.00;99.90;;;;;;4955650;28;20216;-50
2020/12/04 00:18:04;;;;;;;10.85;8.00;;;-1.00;99.90;;;;;;4955418;28;20181;-46
2020/12/04 00:20:33;;;;;;;11.88;7.95;;;-1.00;99.90;;;;;;4955289;28;20200;-44
2020/12/04 00:23:00;;;;;;;6.53;5.20;;;-1.00;99.90;;;;;;4955503;28;20553;-50
2020/12/04 00:25:27;;;;;;;12.13;6.85;;;-0.90;99.90;;;;;;4955020;29;20223;-48
2020/12/04 00:27:54;;;;;;;4.13;3.55;;;-0.90;99.90;;;;;;4955286;28;20180;-46
2020/12/04 00:30:21;;;;;;;14.15;7.63;;;-1.00;99.90;;;;;;4955742;28;20549;-49
2020/12/04 00:32:49;;;;;;;12.30;5.65;;;-1.00;99.90;;;;;;4955267;29;20688;-45
2020/12/04 00:35:16;;;;;;;12.77;5.45;;;-0.90;99.90;;;;;;4955376;28;20208;-45
2020/12/04 00:37:44;;;;;;;18.50;8.48;;;-0.90;99.90;;;;;;4955018;28;20264;-49
2020/12/04 00:40:11;;;;;;;9.48;6.57;;;-1.00;99.90;;;;;;4955092;29;20211;-51
2020/12/04 00:42:38;;;;;;;11.02;7.38;;;-1.00;99.90;;;;;;4955142;28;20180;-50
2020/12/04 00:45:07;;;;;;;22.90;10.80;;;-1.00;99.90;;;;;;4953694;29;20724;-53
2020/12/04 00:47:35;;;;;;;17.92;9.15;;;-1.00;99.90;;;;;;4953750;29;20207;-49
2020/12/04 00:50:02;;;;;;;21.10;8.07;;;-1.10;99.90;;;;;;4954071;29;20283;-46
2020/12/04 00:52:30;;;;;;;20.33;9.05;;;-1.00;99.90;;;;;;4954196;28;20596;-47
2020/12/04 00:54:59;;;;;;;9.57;6.95;;;-1.00;99.90;;;;;;4953403;28;20219;-50
2020/12/04 00:57:26;;;;;;;10.68;5.55;;;-1.10;99.90;;;;;;4953680;28;20195;-52
2020/12/04 00:59:53;;;;;;;10.40;6.50;;;-1.00;99.90;;;;;;4953501;28;20216;-47
2020/12/04 01:02:20;;;;;;;9.10;6.35;;;-1.10;99.90;;;;;;4955813;28;20321;-48
2020/12/04 01:04:47;;;;;;;8.32;5.80;;;-1.20;99.90;;;;;;4955118;28;20715;-46
2020/12/04 01:07:15;;;;;;;17.90;8.75;;;-1.10;99.90;;;;;;4955030;28;20191;-50
2020/12/04 01:09:42;;;;;;;11.82;4.65;;;-1.10;99.90;;;;;;4955129;28;20177;-51
2020/12/04 01:12:10;;;;;;;9.60;5.57;;;-1.10;99.90;;;;;;4954623;28;20233;-52
2020/12/04 01:14:38;;;;;;;7.70;5.43;;;-1.10;99.90;;;;;;4954457;29;20215;-53
2020/12/04 01:17:05;;;;;;;4.47;3.50;;;-1.10;99.90;;;;;;4954788;28;20203;-49
2020/12/04 01:19:32;;;;;;;11.05;5.95;;;-1.10;99.90;;;;;;4954530;28;20184;-48
2020/12/04 01:21:59;;;;;;;6.43;4.32;;;-1.10;99.90;;;;;;4954543;28;20180;-51
2020/12/04 01:24:26;;;;;;;10.77;5.22;;;-1.10;99.90;;;;;;4954432;28;20625;-52
2020/12/04 01:26:54;;;;;;;5.97;5.43;;;-1.10;99.90;;;;;;4954893;28;20183;-46
2020/12/04 01:29:22;;;;;;;12.63;4.25;;;-1.10;99.90;;;;;;4954288;28;20216;-53
2020/12/04 01:31:49;;;;;;;12.23;7.90;;;-1.10;99.90;;;;;;4954787;28;20646;-46
2020/12/04 01:34:16;;;;;;;15.48;7.75;;;-1.10;99.90;;;;;;4954351;28;20176;-47
2020/12/04 01:36:44;;;;;;;11.48;5.10;;;-1.10;99.90;;;;;;4954413;28;20183;-49
2020/12/04 01:39:11;;;;;;;13.07;6.50;;;-1.10;99.90;;;;;;4954402;29;20196;-48
2020/12/04 01:41:38;;;;;;;20.17;8.35;;;-1.10;99.90;;;;;;4954580;28;20216;-44
2020/12/04 01:44:06;;;;;;;12.55;7.40;;;-1.10;99.90;;;;;;4954311;28;20180;-51
2020/12/04 01:46:34;;;;;;;12.50;7.40;;;-1.10;99.90;;;;;;4954305;28;20283;-48
2020/12/04 01:49:02;;;;;;;10.98;7.97;;;-1.20;99.90;;;;;;4954326;29;20263;-51
2020/12/04 01:51:30;;;;;;;9.70;6.88;;;-1.10;99.90;;;;;;4954390;28;20215;-49
2020/12/04 01:53:58;;;;;;;5.60;4.35;;;-1.10;99.90;;;;;;4954440;29;20185;-51
2020/12/04 01:56:25;;;;;;;16.48;6.50;;;-1.10;99.90;;;;;;4954501;28;20222;-49
2020/12/04 01:58:52;;;;;;;8.15;6.03;;;-1.10;99.90;;;;;;4954028;29;20193;-51
2020/12/04 02:01:20;;;;;;;13.30;8.00;;;-1.10;99.90;;;;;;4954396;28;20208;-46
2020/12/04 02:03:48;;;;;;;14.18;7.43;;;-1.10;99.90;;;;;;4954091;29;20176;-50
2020/12/04 02:06:22;;;;;;;16.52;7.10;;;-1.10;99.90;;;;;;4956844;28;20210;-50
2020/12/04 02:08:56;;;;;;;16.42;9.45;;;-1.10;99.90;;;;;;4957660;28;20681;-50
2020/12/04 02:11:25;;;;;;;20.27;10.68;;;-1.10;99.90;;;;;;4957731;28;20176;-52
2020/12/04 02:13:55;;;;;;;13.50;6.13;;;-1.10;99.90;;;;;;4957698;28;20545;-49
2020/12/04 02:16:23;;;;;;;12.32;6.95;;;-1.10;99.90;;;;;;4957571;28;20323;-49
2020/12/04 02:18:51;;;;;;;15.85;10.07;;;-1.10;99.90;;;;;;4957568;29;20460;-52
2020/12/04 02:21:19;;;;;;;20.00;9.82;;;-1.10;99.90;;;;;;4957395;28;20658;-51
2020/12/04 02:23:48;;;;;;;10.52;4.97;;;-1.20;99.90;;;;;;4957771;29;20181;-48
2020/12/04 02:26:18;;;;;;;7.57;6.82;;;-1.20;99.90;;;;;;4957532;29;20290;-46
2020/12/04 02:28:46;;;;;;;18.38;9.43;;;-1.20;99.90;;;;;;4957767;28;20188;-47
2020/12/04 02:31:14;;;;;;;16.40;6.30;;;-1.20;99.90;;;;;;4957340;28;20176;-45
2020/12/04 02:33:43;;;;;;;11.80;6.55;;;-1.20;99.90;;;;;;4957201;29;20259;-48
2020/12/04 02:36:11;;;;;;;16.52;7.95;;;-1.20;99.90;;;;;;4955826;29;20220;-47
2020/12/04 02:38:39;;;;;;;18.88;7.97;;;-1.10;99.90;;;;;;4957054;28;20240;-49
2020/12/04 02:41:07;;;;;;;9.20;6.13;;;-1.10;99.90;;;;;;4957127;28;20197;-48
2020/12/04 02:43:34;;;;;;;10.40;8.00;;;-1.10;99.90;;;;;;4957638;28;20208;-48
2020/12/04 02:46:02;;;;;;;18.98;7.47;;;-1.00;99.90;;;;;;4957076;29;20219;-46
2020/12/04 02:48:29;;;;;;;8.98;5.82;;;-1.00;99.90;;;;;;4957139;28;20569;-48
2020/12/04 02:50:56;;;;;;;12.32;6.10;;;-1.00;99.90;;;;;;4957003;28;20185;-45
2020/12/04 02:53:23;;;;;;;14.32;11.38;;;-1.00;99.90;;;;;;4957400;28;20542;-49
2020/12/04 02:55:51;;;;;;;13.73;8.45;;;-1.00;99.90;;;;;;4955545;29;20243;-45
2020/12/04 02:58:18;;;;;;;22.88;8.82;;;-1.10;99.90;;;;;;4956651;29;20184;-45
2020/12/04 03:00:46;;;;;;;12.48;8.20;;;-1.00;99.90;;;;;;4956560;28;20255;-46
2020/12/04 03:03:13;;;;;;;14.95;9.07;;;-1.00;99.90;;;;;;4956776;28;20177;-45
2020/12/04 03:05:41;;;;;;;17.58;10.93;;;-1.00;99.90;;;;;;4955356;29;20276;-46
2020/12/04 03:08:08;;;;;;;8.85;7.00;;;-1.10;99.90;;;;;;4956687;28;20187;-48
2020/12/04 03:10:35;;;;;;;12.00;6.38;;;-1.10;99.90;;;;;;4956434;28;20263;-47
2020/12/04 03:13:04;;;;;;;11.98;6.63;;;-1.00;99.90;;;;;;4955290;28;20184;-45
2020/12/04 03:15:31;;;;;;;12.63;7.75;;;-1.00;99.90;;;;;;4956400;28;20715;-47
2020/12/04 03:17:58;;;;;;;13.90;8.00;;;-0.90;99.90;;;;;;4955928;28;20188;-45
2020/12/04 03:20:25;;;;;;;12.82;6.30;;;-1.00;99.90;;;;;;4956338;28;20780;-48
2020/12/04 03:22:53;;;;;;;7.93;5.78;;;-0.90;99.90;;;;;;4956491;28;20252;-51
2020/12/04 03:25:20;;;;;;;17.38;8.35;;;-0.90;99.90;;;;;;4956047;29;20224;-48
2020/12/04 03:27:47;;;;;;;15.18;8.77;;;-0.90;99.90;;;;;;4956547;28;20195;-46
2020/12/04 03:30:15;;;;;;;13.18;5.18;;;-0.90;99.90;;;;;;4956711;28;20199;-50
2020/12/04 03:32:42;;;;;;;18.95;9.73;;;-0.90;99.90;;;;;;4956211;29;20192;-49
2020/12/04 03:35:10;;;;;;;9.18;6.65;;;-0.80;99.90;;;;;;4954726;29;20227;-48
2020/12/04 03:37:37;;;;;;;12.48;9.52;;;-0.90;99.90;;;;;;4955939;28;20192;-48
2020/12/04 03:40:05;;;;;;;11.23;6.13;;;-0.90;99.90;;;;;;4954352;28;20545;-45
2020/12/04 03:42:32;;;;;;;9.80;8.27;;;-0.80;99.90;;;;;;4954393;28;20192;-53
2020/12/04 03:44:59;;;;;;;12.55;7.32;;;-0.80;99.90;;;;;;4955106;28;20223;-43
2020/12/04 03:47:27;;;;;;;9.88;4.47;;;-0.80;99.90;;;;;;4955202;28;20180;-45
2020/12/04 03:49:54;;;;;;;14.55;7.35;;;-0.80;99.90;;;;;;4955019;28;20199;-50
2020/12/04 03:52:21;;;;;;;24.77;10.27;;;-0.80;99.90;;;;;;4954782;28;20248;-45
2020/12/04 03:54:49;;;;;;;14.95;7.65;;;-0.80;99.90;;;;;;4952985;29;20220;-43
2020/12/04 03:57:16;;;;;;;14.18;8.65;;;-0.70;99.90;;;;;;4954519;28;20184;-49
2020/12/04 03:59:43;;;;;;;10.35;6.43;;;-0.80;99.90;;;;;;4955154;28;20196;-43
2020/12/04 04:02:10;;;;;;;15.13;8.95;;;-0.80;99.90;;;;;;4954812;28;20563;-44
2020/12/04 04:04:38;;;;;;;12.00;7.25;;;-0.90;99.90;;;;;;4955155;28;20230;-44
2020/12/04 04:07:05;;;;;;;18.13;7.88;;;-0.80;99.90;;;;;;4954885;28;20190;-44
2020/12/04 04:09:32;;;;;;;13.02;8.45;;;-0.70;99.90;;;;;;4954622;28;20192;-42
2020/12/04 04:12:00;;;;;;;8.35;6.13;;;-0.80;99.90;;;;;;4955009;28;20184;-43
2020/12/04 04:14:27;;;;;;;17.42;8.20;;;-0.80;99.90;;;;;;4954551;28;20594;-45
2020/12/04 04:16:54;;;;;;;12.73;6.50;;;-0.70;99.90;;;;;;4954854;28;20259;-44
2020/12/04 04:19:21;;;;;;;14.07;9.00;;;-0.70;99.90;;;;;;4954061;29;20176;-47
2020/12/04 04:21:49;;;;;;;9.20;6.95;;;-0.70;99.90;;;;;;4954299;28;20204;-45
2020/12/04 04:24:17;;;;;;;13.93;5.72;;;-0.70;99.90;;;;;;4952527;28;20199;-43
2020/12/04 04:26:44;;;;;;;8.90;7.10;;;-0.70;99.90;;;;;;4954859;29;20204;-46
2020/12/04 04:29:11;;;;;;;14.52;8.00;;;-0.70;99.90;;;;;;4953114;28;20188;-46
2020/12/04 04:31:39;;;;;;;13.02;7.72;;;-0.70;99.90;;;;;;4953442;29;20179;-49
2020/12/04 04:34:07;;;;;;;13.32;8.07;;;-0.60;99.90;;;;;;4953608;28;20184;-51
2020/12/04 04:36:34;;;;;;;12.82;9.10;;;-0.70;99.90;;;;;;4953710;28;20226;-47
2020/12/04 04:39:06;;;;;;;9.57;7.82;;;-0.60;99.90;;;;;;4953507;29;20255;-48
2020/12/04 04:41:33;;;;;;;16.50;7.05;;;-0.60;99.90;;;;;;4953208;28;20207;-48
2020/12/04 04:44:00;;;;;;;14.73;6.75;;;-0.50;99.90;;;;;;4953509;28;20586;-44
2020/12/04 04:46:34;;;;;;;8.20;5.68;;;-0.40;99.90;;;;;;4953396;29;20214;-47
2020/12/04 04:49:11;;;;;;;14.88;8.82;;;-0.40;99.90;;;;;;4953818;28;20192;-46
2020/12/04 04:51:41;;;;;;;9.88;5.28;;;-0.40;99.90;;;;;;4953532;29;20589;-47
2020/12/04 04:54:11;;;;;;;9.38;7.10;;;-0.50;99.90;;;;;;4953388;29;20192;-48
2020/12/04 04:56:38;;;;;;;16.67;8.25;;;-0.50;99.90;;;;;;4953591;29;20597;-46
2020/12/04 04:59:08;;;;;;;15.32;8.98;;;-0.60;99.90;;;;;;4954678;29;20186;-48
2020/12/04 05:01:35;;;;;;;12.68;6.85;;;-0.70;99.90;;;;;;4954453;29;20719;-50
2020/12/04 05:04:03;;;;;;;15.27;8.15;;;-0.60;99.90;;;;;;4953416;29;20210;-47
2020/12/04 05:06:34;;;;;;;8.32;7.20;;;-0.60;99.90;;;;;;4954861;28;20231;-44
2020/12/04 05:09:03;;;;;;;13.43;6.78;;;-0.60;99.90;;;;;;4953235;29;20195;-47
2020/12/04 05:11:32;;;;;;;12.55;9.52;;;-0.60;99.90;;;;;;4954421;29;20180;-50
2020/12/04 05:14:13;;;;;;;13.48;8.57;;;-0.60;99.90;;;;;;4954686;28;20220;-48
2020/12/04 05:16:42;;;;;;;8.50;5.85;;;-0.70;99.90;;;;;;4954405;29;20203;-45
2020/12/04 05:19:10;;;;;;;11.32;7.55;;;-0.70;99.90;;;;;;4954316;29;20244;-44
2020/12/04 05:21:38;;;;;;;8.70;5.97;;;-0.80;99.90;;;;;;4954281;29;20243;-48
2020/12/04 05:24:06;;;;;;;15.52;9.00;;;-0.80;99.90;;;;;;4959812;23;20228;-75
2020/12/04 05:26:35;;;;;;;9.20;8.05;;;-0.70;99.90;;;;;;4935873;29;20189;-74
2020/12/04 05:29:04;;;;;;;12.48;7.20;;;-0.70;99.90;;;;;;4935571;29;20265;-74
2020/12/04 05:31:33;;;;;;;16.75;9.05;;;-0.70;99.90;;;;;;4935860;29;20288;-74
2020/12/04 05:34:18;;;;;;;13.90;8.10;;;-0.70;99.90;;;;;;4934320;29;20213;-74
2020/12/04 05:36:45;;;;;;;19.13;7.50;;;-0.60;99.90;;;;;;4935316;29;20640;-74
2020/12/04 05:39:12;;;;;;;15.38;7.95;;;-0.60;99.90;;;;;;4935631;29;20188;-75
2020/12/04 05:41:47;;;;;;;22.55;10.65;;;-0.60;99.90;;;;;;4939097;29;20209;-74
2020/12/04 05:44:14;;;;;;;9.25;8.35;;;-0.60;99.90;;;;;;4939429;29;20220;-75
2020/12/04 05:46:52;;;;;;;10.32;8.55;;;-0.60;99.90;;;;;;4939465;29;20181;-74
2020/12/04 05:49:20;;;;;;;12.13;7.65;;;-0.60;99.90;;;;;;4938353;29;20195;-75
2020/12/04 05:51:52;;;;;;;6.93;4.45;;;-0.60;99.90;;;;;;4939358;29;20184;-74
2020/12/04 05:54:22;;;;;;;6.85;6.15;;;-0.70;99.90;;;;;;4937745;29;20315;-74
2020/12/04 05:56:51;;;;;;;13.75;10.63;;;-0.60;99.90;;;;;;4937887;29;20196;-75
2020/12/04 05:59:22;;;;;;;14.00;8.57;;;-0.60;99.90;;;;;;4937765;29;20565;-75
2020/12/04 06:01:49;;;;;;;14.73;10.00;;;-0.50;99.90;;;;;;4938744;29;20204;-75
2020/12/04 06:04:18;;;;;;;13.20;7.03;;;-0.40;99.90;;;;;;4939173;29;20280;-75
2020/12/04 06:06:45;;;;;;;12.60;7.72;;;-0.40;99.90;;;;;;4939607;29;20200;-75
2020/12/04 06:09:13;;;;;;;10.70;7.57;;;-0.30;99.90;;;;;;4939093;29;20185;-75
2020/12/04 06:11:42;;;;;;;10.07;7.38;;;-0.30;99.90;;;;;;4938947;29;20189;-75
2020/12/04 06:14:17;;;;;;;13.43;8.13;;;-0.20;99.90;;;;;;4939081;29;20272;-74
2020/12/04 06:17:09;;;;;;;11.77;9.13;;;-0.10;99.90;;;;;;4938849;29;20185;-74
2020/12/04 06:19:38;;;;;;;7.97;5.65;;;0.00;99.90;;;;;;4938834;29;20213;-75
2020/12/04 06:22:06;;;;;;;13.35;7.95;;;0.00;99.90;;;;;;4938850;29;20207;-74
2020/12/04 06:25:01;;;;;;;22.55;9.23;;;0.00;99.90;;;;;;4938532;29;20216;-74
2020/12/04 06:27:44;;;;;;;15.13;8.40;;;0.00;99.90;;;;;;4937505;29;20196;-75
2020/12/04 06:30:12;;;;;;;16.58;10.85;;;-0.10;99.90;;;;;;4940285;29;20188;-75
2020/12/04 06:32:42;;;;;;;12.57;8.30;;;-0.10;99.90;;;;;;4938542;29;20185;-75
2020/12/04 06:35:10;;;;;;;17.33;10.18;;;0.00;99.90;;;;;;4938197;29;20683;-75
2020/12/04 06:37:38;;;;;;;14.70;10.23;;;0.10;99.90;;;;;;4938200;29;20586;-74
2020/12/04 06:40:25;;;;;;;17.25;9.27;;;0.10;99.90;;;;;;4938357;29;20193;-75
2020/12/04 06:42:55;;;;;;;15.25;7.63;;;0.20;99.90;;;;;;4937095;29;20197;-74
2020/12/04 06:45:22;;;;;;;9.82;6.45;;;0.20;99.90;;;;;;4937888;29;20276;-75
2020/12/04 06:48:12;;;;;;;8.15;4.43;;;0.30;99.90;;;;;;4938260;29;20267;-75
2020/12/04 06:50:40;;;;;;;13.25;4.78;;;0.30;99.90;;;;;;4938029;29;20177;-75
2020/12/04 06:53:09;;;;;;;7.47;6.75;;;0.30;99.90;;;;;;4937395;29;20244;-74
2020/12/04 06:55:37;;;;;;;18.63;10.45;;;0.30;99.90;;;;;;4938064;29;20181;-74
2020/12/04 06:58:05;;;;;;;24.08;9.98;;;0.20;99.90;;;;;;4937804;29;20193;-74
2020/12/04 07:00:33;;;;;;;14.80;6.35;;;0.20;99.90;;;;;;4938023;29;20205;-74
2020/12/04 07:03:02;;;;;;;10.15;7.32;;;0.20;99.90;;;;;;4937912;29;20177;-74
2020/12/04 07:05:32;;;;;;;11.73;10.23;;;0.40;99.90;;;;;;4937929;29;20587;-74
2020/12/04 07:08:04;;;;;;;13.95;7.35;;;0.40;99.90;;;;;;4938127;29;20187;-74
2020/12/04 07:10:32;;;;;;;12.27;8.57;;;0.40;99.90;;;;;;4938089;29;20189;-75
2020/12/04 07:13:00;;;;;;;13.70;5.47;;;0.40;99.90;;;;;;4937887;29;20196;-74
2020/12/04 07:15:29;;;;;;;16.92;8.05;;;0.50;99.90;;;;;;4937424;29;20188;-75
2020/12/04 07:17:57;;;;;;;10.30;6.68;;;0.50;99.90;;;;;;4937733;29;20189;-75
2020/12/04 07:20:32;;;;;;;15.57;9.60;;;0.60;99.90;;;;;;4936716;29;20208;-75
2020/12/04 07:22:59;;;;;;;12.73;7.78;;;0.60;99.90;;;;;;4937472;29;20180;-74
2020/12/04 07:25:26;;;;;;;11.10;7.63;;;0.70;99.90;;;;;;4936292;29;20200;-76
2020/12/04 07:27:55;;;;;;;16.58;9.38;;;0.70;99.90;;;;;;4936309;29;20181;-76
2020/12/04 07:30:25;;;;;;;12.88;8.07;;;0.80;99.90;;;;;;4937986;29;20240;-77
2020/12/04 07:32:54;;;;;;;8.25;6.82;;;0.80;99.90;;;;;;4937113;29;20578;-74
2020/12/04 07:35:22;;;;;;;11.77;7.00;;;0.80;99.90;;;;;;4937454;29;20236;-74
2020/12/04 07:37:49;;;;;;;13.25;9.52;;;0.80;99.90;;;;;;4937238;29;20185;-76
2020/12/04 07:40:18;;;;;;;11.55;8.60;;;0.80;99.90;;;;;;4937436;29;20236;-75
2020/12/04 07:42:45;;;;;;;11.82;8.70;;;0.70;99.90;;;;;;4937739;29;20205;-74
2020/12/04 07:45:16;;;;;;;13.75;9.20;;;0.80;99.90;;;;;;4940591;29;20173;-75
2020/12/04 07:47:44;;;;;;;14.63;9.02;;;0.80;99.90;;;;;;4939779;29;20243;-75
2020/12/04 07:50:14;;;;;;;17.00;7.93;;;0.80;99.90;;;;;;4939695;29;20563;-75
2020/12/04 07:52:50;;;;;;;16.40;6.10;;;0.80;99.90;;;;;;4938710;29;20525;-75
2020/12/04 07:55:20;;;;;;;15.98;9.98;;;0.80;99.90;;;;;;4938381;29;20228;-76
2020/12/04 07:57:59;;;;;;;23.92;10.50;;;0.90;99.90;;;;;;4936939;29;20196;-76
2020/12/04 08:00:31;;;;;;;14.32;9.70;;;1.00;99.90;;;;;;4936835;29;20180;-75
2020/12/04 08:03:02;;;;;;;9.05;6.88;;;1.10;99.90;;;;;;4936684;29;20197;-76
2020/12/04 08:05:34;;;;;;;11.80;9.57;;;1.20;99.90;;;;;;4935939;29;20200;-76
2020/12/04 08:08:02;;;;;;;19.00;10.23;;;1.30;99.90;;;;;;4936647;29;20181;-75
2020/12/04 08:10:29;;;;;;;15.27;11.10;;;1.30;99.90;;;;;;4935433;29;20556;-75
2020/12/04 08:12:57;;;;;;;21.52;10.40;;;1.40;99.90;;;;;;4936923;29;20177;-75
2020/12/04 08:15:25;;;;;;;9.90;7.38;;;1.50;99.90;;;;;;4935598;29;20197;-76
2020/12/04 08:18:00;;;;;;;13.05;10.88;;;1.50;99.90;;;;;;4936282;29;20185;-76
2020/12/04 08:20:27;;;;;;;15.63;8.65;;;1.60;99.90;;;;;;4936359;29;20169;-76
2020/12/04 08:22:55;;;;;;;12.05;7.88;;;1.70;99.90;;;;;;4935188;29;20209;-74
2020/12/04 08:25:24;;;;;;;13.10;8.30;;;1.80;99.90;;;;;;4936263;29;20203;-77
2020/12/04 08:27:51;;;;;;;14.32;8.98;;;1.80;99.90;;;;;;4936430;29;20174;-75
2020/12/04 08:30:20;;;;;;;11.38;6.28;;;1.90;99.90;;;;;;4936371;29;20185;-75
2020/12/04 08:32:48;;;;;;;11.60;7.68;;;2.00;99.90;;;;;;4936156;29;20667;-75
2020/12/04 08:35:17;;;;;;;17.33;8.75;;;2.00;99.90;;;;;;4935930;29;20188;-76
2020/12/04 08:37:46;;;;;;;7.22;6.20;;;2.10;99.90;;;;;;4936168;29;20267;-75
2020/12/04 08:40:22;;;;;;;12.63;8.57;;;2.10;99.90;;;;;;4935884;29;20228;-75
2020/12/04 08:42:52;;;;;;;14.60;9.68;;;2.20;99.90;;;;;;4934698;29;20208;-75
2020/12/04 08:45:26;;;;;;;10.98;7.25;;;2.30;99.90;;;;;;4936185;29;20641;-76
2020/12/04 08:47:54;;;;;;;17.42;10.18;;;2.30;99.90;;;;;;4936476;29;20181;-75
2020/12/04 08:50:22;;;;;;;12.98;9.35;;;2.40;99.90;;;;;;4935277;29;20185;-75
2020/12/04 08:52:51;;;;;;;9.93;6.85;;;2.40;99.90;;;;;;4936785;29;20188;-75
2020/12/04 08:55:21;;;;;;;14.80;7.85;;;2.50;99.90;;;;;;4934793;29;20205;-74
2020/12/04 08:57:50;;;;;;;16.30;9.15;;;2.60;99.90;;;;;;4935872;29;20660;-74
2020/12/04 09:00:20;;;;;;;14.88;8.43;;;2.70;99.90;;;;;;4935717;29;20207;-76
2020/12/04 09:02:47;;;;;;;14.13;9.23;;;2.90;99.90;;;;;;4935583;29;20288;-76
2020/12/04 09:05:16;;;;;;;18.60;7.65;;;3.10;99.90;;;;;;4937430;29;20201;-76
2020/12/04 09:07:44;;;;;;;16.40;8.10;;;3.20;99.90;;;;;;4935740;29;20196;-75
2020/12/04 09:10:13;;;;;;;20.52;9.85;;;3.40;99.90;;;;;;4935780;29;20221;-76
2020/12/04 09:12:42;;;;;;;13.93;8.23;;;3.50;99.90;;;;;;4934979;29;20252;-76
2020/12/04 09:15:11;;;;;;;17.38;11.15;;;3.60;99.90;;;;;;4935473;29;20216;-75
2020/12/04 09:17:38;;;;;;;13.43;8.52;;;3.60;99.90;;;;;;4936443;29;20181;-75
2020/12/04 09:20:08;;;;;;;10.15;8.80;;;3.80;99.90;;;;;;4936485;29;20181;-76
2020/12/04 09:22:35;;;;;;;13.63;9.93;;;3.90;99.90;;;;;;4934336;29;20750;-76
2020/12/04 09:25:04;;;;;;;12.63;9.35;;;3.70;99.90;;;;;;4935222;29;20594;-74
2020/12/04 09:27:31;;;;;;;10.65;7.20;;;3.60;99.90;;;;;;4935438;29;20177;-76
2020/12/04 09:30:00;;;;;;;15.13;7.43;;;3.50;99.90;;;;;;4935384;29;20192;-76
2020/12/04 09:32:27;;;;;;;12.82;7.68;;;3.40;99.90;;;;;;4935768;29;20173;-73
2020/12/04 09:34:54;;;;;;;15.38;8.85;;;3.40;99.90;;;;;;4935431;29;20219;-75
2020/12/04 09:37:24;;;;;;;12.98;8.25;;;3.30;99.90;;;;;;4935521;29;20228;-75
2020/12/04 09:39:53;;;;;;;11.32;9.95;;;3.30;99.90;;;;;;4935771;29;20189;-75
2020/12/04 09:42:22;;;;;;;20.00;12.27;;;3.40;99.90;;;;;;4935609;29;20216;-75
2020/12/04 09:44:49;;;;;;;17.85;9.18;;;3.40;99.90;;;;;;4935258;29;20260;-75
2020/12/04 09:47:17;;;;;;;14.20;7.93;;;3.50;99.90;;;;;;4935297;29;20181;-75
2020/12/04 09:49:45;;;;;;;10.48;8.80;;;3.60;99.90;;;;;;4935518;29;20557;-75
2020/12/04 09:52:15;;;;;;;10.38;7.85;;;3.60;99.90;;;;;;4935501;29;20176;-74
2020/12/04 09:54:44;;;;;;;28.00;15.13;;;3.80;99.90;;;;;;4935643;29;20303;-74
2020/12/04 09:57:12;;;;;;;99.28;45.35;;;3.80;99.90;;;;;;4935933;29;20197;-74
2020/12/04 09:59:40;;;;;;;28.20;11.10;;;3.90;99.90;;;;;;4936140;29;20224;-74
2020/12/04 10:02:08;;;;;;;9.77;8.15;;;4.00;99.90;;;;;;4936365;29;20564;-75
2020/12/04 10:04:38;;;;;;;10.25;7.78;;;4.00;99.90;;;;;;4935431;29;20213;-75
2020/12/04 10:07:07;;;;;;;8.55;7.68;;;3.90;99.90;;;;;;4935239;29;20185;-74
2020/12/04 10:09:34;;;;;;;14.57;8.95;;;3.90;99.90;;;;;;4935284;29;20248;-75
2020/12/04 10:12:02;;;;;;;19.13;10.70;;;4.00;99.90;;;;;;4933838;29;20197;-75
2020/12/04 10:14:29;;;;;;;11.82;8.52;;;4.00;99.90;;;;;;4935290;29;20632;-75
2020/12/04 10:16:56;;;;;;;15.95;9.48;;;4.10;99.90;;;;;;4935666;29;20358;-75
2020/12/04 10:19:23;;;;;;;9.55;6.32;;;4.20;99.90;;;;;;4933957;29;20193;-75
2020/12/04 10:21:51;;;;;;;13.00;7.88;;;4.30;99.90;;;;;;4935093;29;20201;-76
2020/12/04 10:24:19;;;;;;;12.77;7.97;;;4.50;99.90;;;;;;4935536;29;20225;-75
2020/12/04 10:26:48;;;;;;;15.13;9.25;;;4.50;99.90;;;;;;4935246;29;20207;-75
2020/12/04 10:29:17;;;;;;;14.55;7.88;;;4.50;99.90;;;;;;4939033;29;20189;-75
2020/12/04 10:31:45;;;;;;;16.48;9.80;;;4.50;99.90;;;;;;4939026;29;20273;-74
2020/12/04 10:34:13;;;;;;;14.88;11.27;;;4.50;99.90;;;;;;4938437;29;20692;-74
2020/12/04 10:36:41;;;;;;;14.65;9.93;;;4.50;99.90;;;;;;4938501;29;20723;-75
2020/12/04 10:39:11;;;;;;;11.27;6.85;;;4.40;99.90;;;;;;4937112;29;20201;-75
2020/12/04 10:41:39;;;;;;;19.60;9.63;;;4.40;99.90;;;;;;4939434;29;20714;-75
2020/12/04 10:44:08;;;;;;;15.27;9.57;;;4.40;99.90;;;;;;4938530;29;20406;-78
2020/12/04 10:46:37;;;;;;;12.82;8.88;;;4.50;99.90;;;;;;4938364;29;20283;-74
2020/12/04 10:49:05;;;;;;;12.40;10.20;;;4.60;99.90;;;;;;4940599;29;20189;-75
2020/12/04 10:51:33;;;;;;;11.07;7.72;;;4.60;99.90;;;;;;4943272;29;20189;-75
2020/12/04 10:54:02;;;;;;;14.45;9.27;;;4.50;99.90;;;;;;4944373;29;20212;-75
2020/12/04 10:56:30;;;;;;;13.07;9.98;;;4.60;99.90;;;;;;4943953;29;20678;-75
2020/12/04 10:58:57;;;;;;;14.93;9.48;;;4.50;99.90;;;;;;4944186;29;20248;-75
2020/12/04 11:01:32;;;;;;;13.40;7.95;;;4.40;99.90;;;;;;4943516;29;20231;-76
2020/12/04 11:06:47;;;;;;;14.77;10.38;;;4.40;99.90;;;;;;4944262;29;20256;-75
2020/12/04 11:09:14;;;;;;;13.82;8.25;;;4.50;99.90;;;;;;4946007;29;20197;-74
2020/12/04 11:11:43;;;;;;;12.88;8.88;;;4.50;99.90;;;;;;4945790;29;20189;-76
2020/12/04 11:14:11;;;;;;;10.65;8.57;;;4.70;99.90;;;;;;4943648;29;20560;-75
2020/12/04 11:16:41;;;;;;;10.95;9.50;;;4.70;99.90;;;;;;4939154;29;20743;-74
2020/12/04 11:19:08;;;;;;;11.23;7.65;;;4.70;99.90;;;;;;4942294;29;20237;-76
2020/12/04 11:21:35;;;;;;;15.65;9.00;;;4.70;99.90;;;;;;4940625;29;20656;-75
2020/12/04 11:24:02;;;;;;;16.80;9.73;;;4.80;99.90;;;;;;4939959;29;20221;-75
2020/12/04 11:26:30;;;;;;;13.38;10.23;;;4.70;99.90;;;;;;4948321;29;20189;-75
2020/12/04 11:28:58;;;;;;;12.65;9.73;;;4.70;99.90;;;;;;4947091;29;20636;-75
2020/12/04 11:31:25;;;;;;;9.70;8.18;;;4.80;99.90;;;;;;4946919;29;20184;-74
2020/12/04 11:33:52;;;;;;;12.02;9.57;;;4.80;99.90;;;;;;4946057;29;20235;-74
2020/12/04 11:36:19;;;;;;;10.15;7.95;;;4.90;99.90;;;;;;4945734;29;20201;-74
2020/12/04 11:38:46;;;;;;;11.75;8.35;;;4.90;99.90;;;;;;4946640;29;20203;-74
2020/12/04 11:41:13;;;;;;;13.68;8.73;;;4.90;99.90;;;;;;4947767;29;20730;-76
2020/12/04 11:43:42;;;;;;;10.43;8.75;;;4.90;99.90;;;;;;4945591;29;20220;-74
2020/12/04 11:46:12;;;;;;;7.10;6.22;;;5.00;99.90;;;;;;4940709;29;20177;-75
2020/12/04 11:48:39;;;;;;;11.05;7.18;;;5.00;99.90;;;;;;4938095;29;20197;-76
2020/12/04 11:51:06;;;;;;;13.00;7.40;;;5.00;99.90;;;;;;4939783;29;20188;-76
2020/12/04 11:53:33;;;;;;;12.73;8.07;;;5.10;99.90;;;;;;4941435;29;20212;-76
2020/12/04 11:56:01;;;;;;;12.07;7.85;;;5.10;99.90;;;;;;4939212;29;20240;-76
2020/12/04 11:58:28;;;;;;;13.52;8.23;;;5.20;99.90;;;;;;4940986;29;20177;-77
2020/12/04 12:00:55;;;;;;;12.05;9.77;;;5.20;99.90;;;;;;4941363;29;20291;-76
2020/12/04 12:03:23;;;;;;;17.90;8.93;;;5.20;99.90;;;;;;4943316;29;20221;-77
2020/12/04 12:05:51;;;;;;;11.55;7.18;;;5.20;99.90;;;;;;4946465;29;20184;-77
2020/12/04 12:08:19;;;;;;;12.70;7.43;;;5.20;99.90;;;;;;4942006;29;20192;-78
2020/12/04 12:10:46;;;;;;;11.65;7.88;;;5.20;99.90;;;;;;4939862;29;20185;-77
2020/12/04 12:13:13;;;;;;;15.75;9.55;;;5.20;99.90;;;;;;4936386;29;20225;-77
2020/12/04 12:15:40;;;;;;;13.70;9.05;;;5.10;99.90;;;;;;4936190;29;20631;-77
2020/12/04 12:18:07;;;;;;;17.23;11.32;;;5.20;99.90;;;;;;4936182;29;20292;-76
2020/12/04 12:20:35;;;;;;;11.65;9.00;;;5.10;99.90;;;;;;4936873;29;20269;-77
2020/12/04 12:23:03;;;;;;;12.85;7.47;;;5.10;99.90;;;;;;4938979;29;20437;-77
2020/12/04 12:25:30;;;;;;;10.80;7.68;;;5.10;99.90;;;;;;4938204;29;20182;-78
2020/12/04 12:28:05;;;;;;;16.52;9.10;;;5.10;99.90;;;;;;4941830;29;20177;-79
2020/12/04 12:30:32;;;;;;;14.45;8.63;;;5.10;99.90;;;;;;4940590;29;20617;-78
2020/12/04 12:33:00;;;;;;;12.63;8.60;;;5.10;99.90;;;;;;4938535;29;20193;-78
2020/12/04 12:35:27;;;;;;;15.43;8.52;;;5.10;99.90;;;;;;4939827;29;20643;-79
2020/12/04 12:37:55;;;;;;;10.68;8.70;;;5.10;99.90;;;;;;4939858;29;20687;-77
2020/12/04 12:40:22;;;;;;;14.00;9.32;;;5.10;99.90;;;;;;4941006;29;20193;-77
2020/12/04 12:42:50;;;;;;;13.73;8.30;;;5.10;99.90;;;;;;4939185;29;20683;-79
2020/12/04 12:45:18;;;;;;;15.00;7.97;;;5.00;99.90;;;;;;4939200;29;20180;-77
2020/12/04 12:47:45;;;;;;;18.17;10.70;;;5.10;99.90;;;;;;4938442;29;20213;-78
2020/12/04 12:50:12;;;;;;;13.02;8.95;;;5.10;99.90;;;;;;4938174;29;20185;-77
2020/12/04 12:52:40;;;;;;;10.57;6.82;;;5.10;99.90;;;;;;4939190;29;20189;-79